sensor_id;sensor_type;location;lat;lon;timestamp;P1;durP1;ratioP1;P2;durP2;ratioP2
29218;SDS011;16421;50.202;7.852;2024-02-16T00:02:01;1.65;;;1.00;;
29218;SDS011;16421;50.202;7.852;2024-02-16T00:07:06;1.63;;;1.27;;
29218;SDS011;16421;50.202;7.852;2024-02-16T00:12:09;2.28;;;1.10;;
29218;SDS011;16421;50.202;7.852;2024-02-16T00:17:13;2.63;;;1.02;;
29218;SDS011;16421;50.202;7.852;2024-02-16T00:22:17;2.45;;;1.02;;
29218;SDS011;16421;50.202;7.852;2024-02-16T00:27:20;1.52;;;1.00;;
29218;SDS011;16421;50.202;7.852;2024-02-16T00:32:24;2.72;;;1.10;;
29218;SDS011;16421;50.202;7.852;2024-02-16T00:37:32;1.83;;;0.90;;
29218;SDS011;16421;50.202;7.852;2024-02-16T00:42:36;0.95;;;0.73;;
29218;SDS011;16421;50.202;7.852;2024-02-16T00:47:39;2.33;;;1.10;;
29218;SDS011;16421;50.202;7.852;2024-02-16T00:52:43;2.60;;;1.15;;
29218;SDS011;16421;50.202;7.852;2024-02-16T00:57:47;1.60;;;0.90;;
29218;SDS011;16421;50.202;7.852;2024-02-16T01:02:50;1.85;;;1.10;;
29218;SDS011;16421;50.202;7.852;2024-02-16T01:07:56;2.78;;;0.90;;
29218;SDS011;16421;50.202;7.852;2024-02-16T01:12:59;0.93;;;0.70;;
29218;SDS011;16421;50.202;7.852;2024-02-16T01:18:04;1.00;;;0.70;;
29218;SDS011;16421;50.202;7.852;2024-02-16T01:23:09;2.05;;;0.73;;
29218;SDS011;16421;50.202;7.852;2024-02-16T01:28:12;1.95;;;0.77;;
29218;SDS011;16421;50.202;7.852;2024-02-16T01:33:15;2.03;;;0.80;;
29218;SDS011;16421;50.202;7.852;2024-02-16T01:38:20;2.17;;;1.00;;
29218;SDS011;16421;50.202;7.852;2024-02-16T01:43:24;2.25;;;0.82;;
29218;SDS011;16421;50.202;7.852;2024-02-16T01:48:27;1.33;;;0.90;;
29218;SDS011;16421;50.202;7.852;2024-02-16T01:53:33;3.70;;;1.27;;
29218;SDS011;16421;50.202;7.852;2024-02-16T01:58:37;4.85;;;1.40;;
29218;SDS011;16421;50.202;7.852;2024-02-16T02:03:40;2.13;;;1.00;;
29218;SDS011;16421;50.202;7.852;2024-02-16T02:08:45;1.20;;;0.70;;
29218;SDS011;16421;50.202;7.852;2024-02-16T02:13:48;1.15;;;0.80;;
29218;SDS011;16421;50.202;7.852;2024-02-16T02:18:52;1.48;;;0.75;;
29218;SDS011;16421;50.202;7.852;2024-02-16T02:23:56;0.50;;;0.50;;
29218;SDS011;16421;50.202;7.852;2024-02-16T02:29:00;0.85;;;0.60;;
29218;SDS011;16421;50.202;7.852;2024-02-16T02:34:03;1.33;;;0.65;;
29218;SDS011;16421;50.202;7.852;2024-02-16T02:39:08;0.88;;;0.60;;
29218;SDS011;16421;50.202;7.852;2024-02-16T02:44:12;2.05;;;0.90;;
29218;SDS011;16421;50.202;7.852;2024-02-16T02:49:15;1.15;;;0.85;;
29218;SDS011;16421;50.202;7.852;2024-02-16T02:54:20;0.90;;;0.80;;
29218;SDS011;16421;50.202;7.852;2024-02-16T02:59:23;0.82;;;0.75;;
29218;SDS011;16421;50.202;7.852;2024-02-16T03:04:26;1.50;;;0.90;;
29218;SDS011;16421;50.202;7.852;2024-02-16T03:09:31;1.30;;;0.82;;
29218;SDS011;16421;50.202;7.852;2024-02-16T03:14:34;2.15;;;0.98;;
29218;SDS011;16421;50.202;7.852;2024-02-16T03:19:39;2.00;;;0.70;;
29218;SDS011;16421;50.202;7.852;2024-02-16T03:24:43;1.48;;;1.05;;
29218;SDS011;16421;50.202;7.852;2024-02-16T03:29:47;1.33;;;1.00;;
29218;SDS011;16421;50.202;7.852;2024-02-16T03:34:50;1.33;;;0.80;;
29218;SDS011;16421;50.202;7.852;2024-02-16T03:39:55;1.70;;;1.23;;
29218;SDS011;16421;50.202;7.852;2024-02-16T03:44:58;1.77;;;1.02;;
29218;SDS011;16421;50.202;7.852;2024-02-16T03:50:01;1.35;;;0.95;;
29218;SDS011;16421;50.202;7.852;2024-02-16T03:55:07;3.00;;;1.08;;
29218;SDS011;16421;50.202;7.852;2024-02-16T04:00:11;1.88;;;0.80;;
29218;SDS011;16421;50.202;7.852;2024-02-16T04:05:15;2.28;;;1.10;;
29218;SDS011;16421;50.202;7.852;2024-02-16T04:10:19;0.98;;;0.70;;
29218;SDS011;16421;50.202;7.852;2024-02-16T04:15:23;1.10;;;0.90;;
29218;SDS011;16421;50.202;7.852;2024-02-16T04:20:26;1.52;;;1.02;;
29218;SDS011;16421;50.202;7.852;2024-02-16T04:25:30;1.40;;;0.85;;
29218;SDS011;16421;50.202;7.852;2024-02-16T04:30:34;0.95;;;0.80;;
29218;SDS011;16421;50.202;7.852;2024-02-16T04:35:37;1.30;;;0.85;;
29218;SDS011;16421;50.202;7.852;2024-02-16T04:40:42;3.00;;;1.05;;
29218;SDS011;16421;50.202;7.852;2024-02-16T04:45:45;1.80;;;1.10;;
29218;SDS011;16421;50.202;7.852;2024-02-16T04:50:49;2.20;;;1.00;;
29218;SDS011;16421;50.202;7.852;2024-02-16T04:55:54;1.70;;;1.05;;
29218;SDS011;16421;50.202;7.852;2024-02-16T05:00:57;2.08;;;1.10;;
29218;SDS011;16421;50.202;7.852;2024-02-16T05:06:01;1.45;;;0.98;;
29218;SDS011;16421;50.202;7.852;2024-02-16T05:11:05;1.58;;;1.10;;
29218;SDS011;16421;50.202;7.852;2024-02-16T05:16:09;1.25;;;0.95;;
29218;SDS011;16421;50.202;7.852;2024-02-16T05:21:12;1.23;;;0.90;;
29218;SDS011;16421;50.202;7.852;2024-02-16T05:26:17;1.30;;;1.00;;
29218;SDS011;16421;50.202;7.852;2024-02-16T05:31:21;2.73;;;1.30;;
29218;SDS011;16421;50.202;7.852;2024-02-16T05:36:24;3.20;;;1.35;;
29218;SDS011;16421;50.202;7.852;2024-02-16T05:41:32;1.35;;;1.08;;
29218;SDS011;16421;50.202;7.852;2024-02-16T05:46:38;1.88;;;0.98;;
29218;SDS011;16421;50.202;7.852;2024-02-16T05:51:41;1.90;;;1.30;;
29218;SDS011;16421;50.202;7.852;2024-02-16T05:57:03;3.10;;;1.48;;
29218;SDS011;16421;50.202;7.852;2024-02-16T06:02:06;3.08;;;1.50;;
29218;SDS011;16421;50.202;7.852;2024-02-16T06:07:11;4.90;;;1.13;;
29218;SDS011;16421;50.202;7.852;2024-02-16T06:12:16;2.53;;;1.30;;
29218;SDS011;16421;50.202;7.852;2024-02-16T06:17:20;2.70;;;1.42;;
29218;SDS011;16421;50.202;7.852;2024-02-16T06:22:23;2.53;;;1.40;;
29218;SDS011;16421;50.202;7.852;2024-02-16T06:27:28;3.58;;;1.67;;
29218;SDS011;16421;50.202;7.852;2024-02-16T06:32:31;2.13;;;1.30;;
29218;SDS011;16421;50.202;7.852;2024-02-16T06:37:34;2.35;;;1.30;;
29218;SDS011;16421;50.202;7.852;2024-02-16T06:42:39;1.30;;;1.05;;
29218;SDS011;16421;50.202;7.852;2024-02-16T06:47:43;3.47;;;1.30;;
29218;SDS011;16421;50.202;7.852;2024-02-16T06:52:46;2.58;;;1.35;;
29218;SDS011;16421;50.202;7.852;2024-02-16T06:57:50;6.57;;;4.75;;
29218;SDS011;16421;50.202;7.852;2024-02-16T07:02:54;16.85;;;15.00;;
29218;SDS011;16421;50.202;7.852;2024-02-16T07:07:57;8.15;;;6.70;;
29218;SDS011;16421;50.202;7.852;2024-02-16T07:13:02;4.90;;;3.22;;
29218;SDS011;16421;50.202;7.852;2024-02-16T07:18:05;2.17;;;1.73;;
29218;SDS011;16421;50.202;7.852;2024-02-16T07:23:09;1.90;;;1.55;;
29218;SDS011;16421;50.202;7.852;2024-02-16T07:28:14;4.78;;;1.55;;
29218;SDS011;16421;50.202;7.852;2024-02-16T07:33:17;1.75;;;1.23;;
29218;SDS011;16421;50.202;7.852;2024-02-16T07:38:21;2.42;;;1.30;;
29218;SDS011;16421;50.202;7.852;2024-02-16T07:43:26;2.65;;;1.17;;
29218;SDS011;16421;50.202;7.852;2024-02-16T07:48:29;1.70;;;1.20;;
29218;SDS011;16421;50.202;7.852;2024-02-16T07:53:32;1.73;;;1.13;;
29218;SDS011;16421;50.202;7.852;2024-02-16T07:58:38;1.83;;;1.35;;
29218;SDS011;16421;50.202;7.852;2024-02-16T08:03:44;1.65;;;1.08;;
29218;SDS011;16421;50.202;7.852;2024-02-16T08:08:47;5.13;;;1.70;;
29218;SDS011;16421;50.202;7.852;2024-02-16T08:13:52;2.25;;;1.63;;
29218;SDS011;16421;50.202;7.852;2024-02-16T08:18:56;2.90;;;1.92;;
29218;SDS011;16421;50.202;7.852;2024-02-16T08:24:00;3.22;;;2.03;;
29218;SDS011;16421;50.202;7.852;2024-02-16T08:29:05;4.03;;;1.88;;
29218;SDS011;16421;50.202;7.852;2024-02-16T08:34:08;2.00;;;1.45;;
29218;SDS011;16421;50.202;7.852;2024-02-16T08:39:12;2.22;;;1.52;;
29218;SDS011;16421;50.202;7.852;2024-02-16T08:44:17;3.20;;;1.48;;
29218;SDS011;16421;50.202;7.852;2024-02-16T08:49:20;2.17;;;1.30;;
29218;SDS011;16421;50.202;7.852;2024-02-16T08:54:23;1.27;;;1.13;;
29218;SDS011;16421;50.202;7.852;2024-02-16T08:59:28;1.55;;;1.13;;
29218;SDS011;16421;50.202;7.852;2024-02-16T09:04:31;2.20;;;1.05;;
29218;SDS011;16421;50.202;7.852;2024-02-16T09:09:34;3.35;;;1.52;;
29218;SDS011;16421;50.202;7.852;2024-02-16T09:14:39;2.95;;;1.60;;
29218;SDS011;16421;50.202;7.852;2024-02-16T09:19:42;1.70;;;1.25;;
29218;SDS011;16421;50.202;7.852;2024-02-16T09:24:45;4.88;;;1.33;;
29218;SDS011;16421;50.202;7.852;2024-02-16T09:29:50;1.65;;;1.25;;
29218;SDS011;16421;50.202;7.852;2024-02-16T09:34:53;1.90;;;1.40;;
29218;SDS011;16421;50.202;7.852;2024-02-16T09:39:57;2.97;;;1.23;;
29218;SDS011;16421;50.202;7.852;2024-02-16T09:45:02;1.90;;;1.17;;
29218;SDS011;16421;50.202;7.852;2024-02-16T09:50:06;1.77;;;1.17;;
29218;SDS011;16421;50.202;7.852;2024-02-16T09:55:12;2.58;;;1.40;;
29218;SDS011;16421;50.202;7.852;2024-02-16T10:00:20;3.45;;;2.20;;
29218;SDS011;16421;50.202;7.852;2024-02-16T10:05:23;3.15;;;1.90;;
29218;SDS011;16421;50.202;7.852;2024-02-16T10:10:27;3.05;;;1.25;;
29218;SDS011;16421;50.202;7.852;2024-02-16T10:15:33;2.57;;;1.70;;
29218;SDS011;16421;50.202;7.852;2024-02-16T10:20:37;2.83;;;1.57;;
29218;SDS011;16421;50.202;7.852;2024-02-16T10:25:42;2.10;;;1.17;;
29218;SDS011;16421;50.202;7.852;2024-02-16T10:30:46;2.25;;;1.30;;
29218;SDS011;16421;50.202;7.852;2024-02-16T10:35:51;3.47;;;1.30;;
29218;SDS011;16421;50.202;7.852;2024-02-16T10:40:56;4.18;;;1.50;;
29218;SDS011;16421;50.202;7.852;2024-02-16T10:46:02;1.40;;;1.00;;
29218;SDS011;16421;50.202;7.852;2024-02-16T10:51:07;2.40;;;1.08;;
29218;SDS011;16421;50.202;7.852;2024-02-16T10:56:12;2.10;;;0.98;;
29218;SDS011;16421;50.202;7.852;2024-02-16T11:01:17;2.95;;;1.20;;
29218;SDS011;16421;50.202;7.852;2024-02-16T11:06:20;3.35;;;1.38;;
29218;SDS011;16421;50.202;7.852;2024-02-16T11:11:24;1.88;;;1.35;;
29218;SDS011;16421;50.202;7.852;2024-02-16T11:16:28;2.58;;;1.70;;
29218;SDS011;16421;50.202;7.852;2024-02-16T11:21:32;3.83;;;1.77;;
29218;SDS011;16421;50.202;7.852;2024-02-16T11:26:41;3.22;;;1.30;;
29218;SDS011;16421;50.202;7.852;2024-02-16T11:31:47;4.35;;;1.83;;
29218;SDS011;16421;50.202;7.852;2024-02-16T11:36:51;3.80;;;1.65;;
29218;SDS011;16421;50.202;7.852;2024-02-16T11:42:01;3.25;;;1.60;;
29218;SDS011;16421;50.202;7.852;2024-02-16T11:47:06;3.25;;;1.70;;
29218;SDS011;16421;50.202;7.852;2024-02-16T11:52:13;3.50;;;1.70;;
29218;SDS011;16421;50.202;7.852;2024-02-16T11:57:17;7.10;;;1.65;;
29218;SDS011;16421;50.202;7.852;2024-02-16T12:02:23;3.53;;;1.40;;
29218;SDS011;16421;50.202;7.852;2024-02-16T12:07:27;4.22;;;1.73;;
29218;SDS011;16421;50.202;7.852;2024-02-16T12:12:31;5.18;;;1.77;;
29218;SDS011;16421;50.202;7.852;2024-02-16T12:17:35;5.30;;;1.55;;
29218;SDS011;16421;50.202;7.852;2024-02-16T12:22:38;3.75;;;1.60;;
29218;SDS011;16421;50.202;7.852;2024-02-16T12:27:42;2.90;;;1.23;;
29218;SDS011;16421;50.202;7.852;2024-02-16T12:32:47;2.60;;;1.67;;
29218;SDS011;16421;50.202;7.852;2024-02-16T12:37:50;3.30;;;1.65;;
29218;SDS011;16421;50.202;7.852;2024-02-16T12:42:53;3.20;;;1.38;;
29218;SDS011;16421;50.202;7.852;2024-02-16T12:47:58;2.88;;;1.25;;
29218;SDS011;16421;50.202;7.852;2024-02-16T12:53:01;2.40;;;1.15;;
29218;SDS011;16421;50.202;7.852;2024-02-16T12:58:04;3.10;;;1.42;;
29218;SDS011;16421;50.202;7.852;2024-02-16T13:03:09;3.13;;;1.48;;
29218;SDS011;16421;50.202;7.852;2024-02-16T13:08:12;3.55;;;1.30;;
29218;SDS011;16421;50.202;7.852;2024-02-16T13:13:16;4.90;;;1.70;;
29218;SDS011;16421;50.202;7.852;2024-02-16T13:18:21;5.15;;;2.38;;
29218;SDS011;16421;50.202;7.852;2024-02-16T13:23:24;5.28;;;2.72;;
29218;SDS011;16421;50.202;7.852;2024-02-16T13:28:30;5.65;;;2.58;;
29218;SDS011;16421;50.202;7.852;2024-02-16T13:33:36;4.43;;;2.05;;
29218;SDS011;16421;50.202;7.852;2024-02-16T13:38:39;5.50;;;2.67;;
29218;SDS011;16421;50.202;7.852;2024-02-16T13:43:42;6.25;;;2.20;;
29218;SDS011;16421;50.202;7.852;2024-02-16T13:48:47;5.75;;;1.98;;
29218;SDS011;16421;50.202;7.852;2024-02-16T13:53:50;3.08;;;1.80;;
29218;SDS011;16421;50.202;7.852;2024-02-16T13:58:54;7.40;;;2.03;;
29218;SDS011;16421;50.202;7.852;2024-02-16T14:03:58;3.70;;;1.73;;
29218;SDS011;16421;50.202;7.852;2024-02-16T14:09:02;4.07;;;1.55;;
29218;SDS011;16421;50.202;7.852;2024-02-16T14:14:12;4.00;;;2.05;;
29218;SDS011;16421;50.202;7.852;2024-02-16T14:19:20;4.93;;;2.00;;
29218;SDS011;16421;50.202;7.852;2024-02-16T14:24:24;4.25;;;1.83;;
29218;SDS011;16421;50.202;7.852;2024-02-16T14:29:27;4.88;;;1.90;;
29218;SDS011;16421;50.202;7.852;2024-02-16T14:34:32;3.78;;;1.98;;
29218;SDS011;16421;50.202;7.852;2024-02-16T14:39:36;5.07;;;2.20;;
29218;SDS011;16421;50.202;7.852;2024-02-16T14:44:39;4.78;;;2.30;;
29218;SDS011;16421;50.202;7.852;2024-02-16T14:49:44;3.05;;;1.73;;
29218;SDS011;16421;50.202;7.852;2024-02-16T14:54:47;4.13;;;2.00;;
29218;SDS011;16421;50.202;7.852;2024-02-16T14:59:51;2.47;;;1.25;;
29218;SDS011;16421;50.202;7.852;2024-02-16T15:04:58;2.00;;;1.27;;
29218;SDS011;16421;50.202;7.852;2024-02-16T15:10:02;2.17;;;1.20;;
29218;SDS011;16421;50.202;7.852;2024-02-16T15:15:06;3.63;;;1.42;;
29218;SDS011;16421;50.202;7.852;2024-02-16T15:20:12;2.83;;;1.00;;
29218;SDS011;16421;50.202;7.852;2024-02-16T15:25:15;3.03;;;1.40;;
29218;SDS011;16421;50.202;7.852;2024-02-16T15:30:18;1.80;;;1.10;;
29218;SDS011;16421;50.202;7.852;2024-02-16T15:35:23;1.45;;;0.88;;
29218;SDS011;16421;50.202;7.852;2024-02-16T15:40:26;2.78;;;1.23;;
29218;SDS011;16421;50.202;7.852;2024-02-16T15:45:29;1.42;;;1.20;;
29218;SDS011;16421;50.202;7.852;2024-02-16T15:50:36;1.10;;;0.90;;
29218;SDS011;16421;50.202;7.852;2024-02-16T15:55:40;1.00;;;0.90;;
29218;SDS011;16421;50.202;7.852;2024-02-16T16:00:44;0.80;;;0.80;;
29218;SDS011;16421;50.202;7.852;2024-02-16T16:05:48;0.88;;;0.77;;
29218;SDS011;16421;50.202;7.852;2024-02-16T16:10:51;1.00;;;0.77;;
29218;SDS011;16421;50.202;7.852;2024-02-16T16:15:55;2.20;;;1.38;;
29218;SDS011;16421;50.202;7.852;2024-02-16T16:20:59;2.30;;;1.00;;
29218;SDS011;16421;50.202;7.852;2024-02-16T16:26:04;3.13;;;0.90;;
29218;SDS011;16421;50.202;7.852;2024-02-16T16:31:07;2.05;;;0.70;;
29218;SDS011;16421;50.202;7.852;2024-02-16T16:36:12;0.88;;;0.73;;
29218;SDS011;16421;50.202;7.852;2024-02-16T16:41:16;1.80;;;0.83;;
29218;SDS011;16421;50.202;7.852;2024-02-16T16:46:19;0.88;;;0.60;;
29218;SDS011;16421;50.202;7.852;2024-02-16T16:51:24;1.40;;;0.80;;
29218;SDS011;16421;50.202;7.852;2024-02-16T16:56:27;1.33;;;1.00;;
29218;SDS011;16421;50.202;7.852;2024-02-16T17:01:31;1.55;;;0.90;;
29218;SDS011;16421;50.202;7.852;2024-02-16T17:06:39;1.45;;;0.90;;
29218;SDS011;16421;50.202;7.852;2024-02-16T17:11:42;0.93;;;0.77;;
29218;SDS011;16421;50.202;7.852;2024-02-16T17:16:45;1.65;;;0.95;;
29218;SDS011;16421;50.202;7.852;2024-02-16T17:21:50;1.02;;;0.90;;
29218;SDS011;16421;50.202;7.852;2024-02-16T17:26:53;2.35;;;1.13;;
29218;SDS011;16421;50.202;7.852;2024-02-16T17:31:56;0.88;;;0.75;;
29218;SDS011;16421;50.202;7.852;2024-02-16T17:37:01;1.05;;;0.80;;
29218;SDS011;16421;50.202;7.852;2024-02-16T17:42:04;2.08;;;1.88;;
29218;SDS011;16421;50.202;7.852;2024-02-16T17:47:08;2.33;;;1.65;;
29218;SDS011;16421;50.202;7.852;2024-02-16T17:52:13;1.90;;;1.13;;
29218;SDS011;16421;50.202;7.852;2024-02-16T17:57:16;2.53;;;1.15;;
29218;SDS011;16421;50.202;7.852;2024-02-16T18:02:22;3.00;;;1.65;;
29218;SDS011;16421;50.202;7.852;2024-02-16T18:07:27;1.30;;;0.93;;
29218;SDS011;16421;50.202;7.852;2024-02-16T18:12:30;1.52;;;1.00;;
29218;SDS011;16421;50.202;7.852;2024-02-16T18:17:34;1.00;;;0.73;;
29218;SDS011;16421;50.202;7.852;2024-02-16T18:22:38;1.20;;;0.68;;
29218;SDS011;16421;50.202;7.852;2024-02-16T18:27:42;1.17;;;0.90;;
29218;SDS011;16421;50.202;7.852;2024-02-16T18:32:45;1.35;;;1.10;;
29218;SDS011;16421;50.202;7.852;2024-02-16T18:37:49;3.45;;;1.60;;
29218;SDS011;16421;50.202;7.852;2024-02-16T18:42:53;1.67;;;1.23;;
29218;SDS011;16421;50.202;7.852;2024-02-16T18:47:56;2.30;;;1.20;;
29218;SDS011;16421;50.202;7.852;2024-02-16T18:53:01;1.85;;;1.20;;
29218;SDS011;16421;50.202;7.852;2024-02-16T18:58:04;1.23;;;0.90;;
29218;SDS011;16421;50.202;7.852;2024-02-16T19:03:07;2.42;;;0.80;;
29218;SDS011;16421;50.202;7.852;2024-02-16T19:08:12;1.75;;;1.52;;
29218;SDS011;16421;50.202;7.852;2024-02-16T19:13:15;4.18;;;1.92;;
29218;SDS011;16421;50.202;7.852;2024-02-16T19:18:18;3.35;;;1.75;;
29218;SDS011;16421;50.202;7.852;2024-02-16T19:23:23;3.15;;;1.98;;
29218;SDS011;16421;50.202;7.852;2024-02-16T19:28:26;3.08;;;1.88;;
29218;SDS011;16421;50.202;7.852;2024-02-16T19:33:30;3.08;;;1.90;;
29218;SDS011;16421;50.202;7.852;2024-02-16T19:38:34;2.53;;;1.90;;
29218;SDS011;16421;50.202;7.852;2024-02-16T19:43:38;2.28;;;1.65;;
29218;SDS011;16421;50.202;7.852;2024-02-16T19:48:41;2.03;;;1.83;;
29218;SDS011;16421;50.202;7.852;2024-02-16T19:53:46;0.73;;;0.73;;
29218;SDS011;16421;50.202;7.852;2024-02-16T19:58:49;0.40;;;0.40;;
29218;SDS011;16421;50.202;7.852;2024-02-16T20:03:52;0.50;;;0.50;;
29218;SDS011;16421;50.202;7.852;2024-02-16T20:08:57;0.50;;;0.50;;
29218;SDS011;16421;50.202;7.852;2024-02-16T20:14:00;0.50;;;0.40;;
29218;SDS011;16421;50.202;7.852;2024-02-16T20:19:04;1.25;;;0.65;;
29218;SDS011;16421;50.202;7.852;2024-02-16T20:24:09;0.80;;;0.70;;
29218;SDS011;16421;50.202;7.852;2024-02-16T20:29:14;1.27;;;0.93;;
29218;SDS011;16421;50.202;7.852;2024-02-16T20:34:17;1.17;;;0.80;;
29218;SDS011;16421;50.202;7.852;2024-02-16T20:39:22;0.47;;;0.47;;
29218;SDS011;16421;50.202;7.852;2024-02-16T20:44:25;0.70;;;0.70;;
29218;SDS011;16421;50.202;7.852;2024-02-16T20:49:28;0.85;;;0.80;;
29218;SDS011;16421;50.202;7.852;2024-02-16T20:54:33;1.85;;;1.13;;
29218;SDS011;16421;50.202;7.852;2024-02-16T20:59:38;0.77;;;0.77;;
29218;SDS011;16421;50.202;7.852;2024-02-16T21:04:41;1.55;;;1.20;;
29218;SDS011;16421;50.202;7.852;2024-02-16T21:09:45;2.00;;;1.80;;
29218;SDS011;16421;50.202;7.852;2024-02-16T21:14:49;5.85;;;4.20;;
29218;SDS011;16421;50.202;7.852;2024-02-16T21:19:53;2.95;;;2.40;;
29218;SDS011;16421;50.202;7.852;2024-02-16T21:24:58;3.70;;;3.33;;
29218;SDS011;16421;50.202;7.852;2024-02-16T21:30:01;5.35;;;4.10;;
29218;SDS011;16421;50.202;7.852;2024-02-16T21:35:05;4.05;;;3.13;;
29218;SDS011;16421;50.202;7.852;2024-02-16T21:40:12;3.72;;;2.85;;
29218;SDS011;16421;50.202;7.852;2024-02-16T21:45:17;4.78;;;4.38;;
29218;SDS011;16421;50.202;7.852;2024-02-16T21:50:22;5.72;;;4.82;;
29218;SDS011;16421;50.202;7.852;2024-02-16T21:55:28;6.10;;;5.50;;
29218;SDS011;16421;50.202;7.852;2024-02-16T22:00:31;7.88;;;7.05;;
29218;SDS011;16421;50.202;7.852;2024-02-16T22:05:34;9.27;;;7.28;;
29218;SDS011;16421;50.202;7.852;2024-02-16T22:10:39;8.07;;;6.70;;
29218;SDS011;16421;50.202;7.852;2024-02-16T22:15:42;5.25;;;4.70;;
29218;SDS011;16421;50.202;7.852;2024-02-16T22:20:46;6.90;;;5.80;;
29218;SDS011;16421;50.202;7.852;2024-02-16T22:25:51;5.40;;;4.05;;
29218;SDS011;16421;50.202;7.852;2024-02-16T22:30:54;4.15;;;3.75;;
29218;SDS011;16421;50.202;7.852;2024-02-16T22:35:58;3.67;;;3.30;;
29218;SDS011;16421;50.202;7.852;2024-02-16T22:41:03;5.03;;;4.13;;
29218;SDS011;16421;50.202;7.852;2024-02-16T22:46:06;5.18;;;4.68;;
29218;SDS011;16421;50.202;7.852;2024-02-16T22:51:09;6.50;;;5.30;;
29218;SDS011;16421;50.202;7.852;2024-02-16T22:56:16;8.93;;;7.38;;
29218;SDS011;16421;50.202;7.852;2024-02-16T23:01:20;6.32;;;4.95;;
29218;SDS011;16421;50.202;7.852;2024-02-16T23:06:24;3.88;;;3.42;;
29218;SDS011;16421;50.202;7.852;2024-02-16T23:11:28;5.60;;;4.47;;
29218;SDS011;16421;50.202;7.852;2024-02-16T23:16:31;4.07;;;3.28;;
29218;SDS011;16421;50.202;7.852;2024-02-16T23:21:35;4.05;;;3.45;;
29218;SDS011;16421;50.202;7.852;2024-02-16T23:26:39;3.70;;;2.97;;
29218;SDS011;16421;50.202;7.852;2024-02-16T23:31:43;3.65;;;3.35;;
29218;SDS011;16421;50.202;7.852;2024-02-16T23:36:46;3.92;;;3.33;;
29218;SDS011;16421;50.202;7.852;2024-02-16T23:41:51;4.57;;;3.67;;
29218;SDS011;16421;50.202;7.852;2024-02-16T23:46:54;5.20;;;4.07;;
29218;SDS011;16421;50.202;7.852;2024-02-16T23:51:57;4.63;;;3.78;;
29218;SDS011;16421;50.202;7.852;2024-02-16T23:57:02;4.45;;;3.47;;
